EDT,Max TemperatureF,Mean TemperatureF,Min TemperatureF,Max Dew PointF,MeanDew PointF,Min DewpointF,Max Humidity, Mean Humidity, Min Humidity, Max Sea Level PressureIn, Mean Sea Level PressureIn, Min Sea Level PressureIn, Max VisibilityMiles, Mean VisibilityMiles, Min VisibilityMiles, Max Wind SpeedMPH, Mean Wind SpeedMPH, Max Gust SpeedMPH,PrecipitationIn, CloudCover, Events, WindDirDegrees
2013-3-1,31,29,26,26,21,17,85,77,68,30.12,30.04,29.95,10,10,10,17,12,22,0.00,8,,6
2013-3-2,27,25,23,19,17,14,81,72,63,30.10,30.08,30.06,10,9,4,14,9,18,T,8,Snow,344
2013-3-3,30,25,19,16,13,10,77,62,46,30.09,30.06,30.01,10,10,8,16,7,21,T,5,Snow,309
2013-3-4,36,26,15,19,15,12,88,66,43,30.18,30.12,30.09,10,10,10,9,3,13,0.00,0,,303
2013-3-5,33,28,22,23,21,18,88,76,63,30.12,29.94,29.76,10,10,7,30,14,36,T,6,Snow,72
2013-3-6,41,34,26,27,24,21,81,68,55,30.23,30.04,29.77,10,10,9,21,9,26,0.00,6,,355
2013-3-7,38,34,30,28,25,18,85,70,54,30.40,30.32,30.20,10,9,7,14,7,18,0.00,8,,325
2013-3-8,45,33,21,24,20,17,88,62,36,30.51,30.46,30.39,10,10,2,9,2,14,T,0,,61
2013-3-9,49,36,23,32,27,21,88,67,46,30.42,30.27,30.04,10,10,7,13,5,16,T,1,,118
2013-3-10,65,50,35,42,35,31,82,59,36,30.02,29.93,29.81,10,10,8,21,9,29,0.03,3,Rain,172
2013-3-11,55,46,37,48,42,30,89,75,61,29.81,29.63,29.49,10,8,2,37,14,44,0.27,8,Rain,197
2013-3-12,37,34,30,30,26,22,82,73,63,29.96,29.89,29.76,10,10,8,21,14,31,T,8,,241
2013-3-13,32,29,25,26,20,14,78,68,57,30.25,30.02,29.90,10,8,1,25,15,33,T,7,Snow,274
2013-3-14,42,32,21,19,17,14,77,59,40,30.30,30.23,30.13,10,10,10,20,9,26,0.00,0,,269
2013-3-15,44,38,31,37,30,20,92,75,58,30.11,29.93,29.84,10,7,2,17,9,22,0.09,6,Rain,249
2013-3-16,35,33,30,34,29,23,96,84,72,30.07,29.85,29.72,10,7,2,20,10,24,0.05,8,Rain,33
2013-3-17,32,28,24,23,18,15,75,62,49,30.26,30.19,30.07,10,10,10,17,10,23,0.00,4,,48
2013-3-18,37,32,27,36,29,19,100,82,63,30.14,29.75,29.55,10,5,1,24,14,32,0.10,7,Rain-Snow,97
2013-3-19,35,29,23,30,17,12,82,64,45,29.99,29.82,29.67,10,7,1,33,22,41,T,7,Snow,256
2013-3-20,31,24,17,18,12,5,74,58,42,29.99,29.97,29.94,10,10,9,24,13,29,T,5,,272
2013-3-21,33,25,16,19,15,10,80,65,49,29.99,29.94,29.90,10,10,8,22,13,28,T,6,Snow,276
2013-3-22,42,34,25,21,17,14,69,54,38,30.04,30.01,29.97,10,10,10,18,9,26,0.00,5,,287
2013-3-23,40,30,20,23,20,16,84,64,44,30.11,30.07,30.04,10,10,7,13,4,20,0.00,2,,349
2013-3-24,35,29,22,25,22,17,92,72,51,30.04,29.82,29.59,10,10,8,29,15,35,T,5,,62
2013-3-25,37,33,29,31,27,23,89,77,64,29.92,29.62,29.50,10,3,0,21,11,26,0.19,8,Fog-Snow,15
2013-3-26,44,38,32,29,27,25,82,67,51,30.15,30.05,29.92,10,10,9,22,10,25,T,8,,300
2013-3-27,45,38,31,29,23,19,85,61,37,30.25,30.20,30.15,10,10,10,23,13,31,T,5,,285
2013-3-28,52,40,27,25,22,20,75,53,30,30.29,30.26,30.24,10,10,10,17,9,22,0.00,3,,287
2013-3-29,52,41,29,23,19,16,75,50,24,30.31,30.27,30.22,10,10,10,15,5,22,0.00,0,,297
2013-3-30,56,41,25,29,21,13,75,49,23,30.25,30.14,29.95,10,10,10,17,5,24,0.00,0,,238
2013-3-31,61,50,38,43,34,27,82,56,29,29.93,29.74,29.65,10,10,6,25,11,31,T,5,Rain,243